Time;durP1;ratioP1;P1;durP2;ratioP2;P2;SDS_P1;SDS_P2;PMS_P1;PMS_P2;Temp;Humidity;BMP_temperature;BMP_pressure;BME280_temperature;BME280_humidity;BME280_pressure;Samples;Min_cycle;Max_cycle;Signal;HPM_P1;HPM_P2
2021/08/18 00:01:58;;;;;;;1999.90;999.90;;;15.00;99.90;;;;;;5034613;28;20447;-66
2021/08/18 00:04:24;;;;;;;1999.90;999.90;;;15.00;99.90;;;;;;5034480;28;20425;-66
2021/08/18 00:06:50;;;;;;;1999.90;999.90;;;15.00;99.90;;;;;;5034481;28;20752;-66
2021/08/18 00:09:15;;;;;;;1999.90;999.90;;;15.10;99.90;;;;;;5034529;28;20160;-66
2021/08/18 00:11:41;;;;;;;1999.90;999.90;;;15.10;99.90;;;;;;5034528;28;20239;-66
2021/08/18 00:14:07;;;;;;;1999.90;999.90;;;15.10;99.90;;;;;;5034126;28;20235;-66
2021/08/18 00:16:33;;;;;;;1999.90;999.90;;;15.10;99.90;;;;;;5034377;28;20170;-66
2021/08/18 00:18:58;;;;;;;1999.90;999.90;;;15.10;99.90;;;;;;5034440;28;20180;-67
2021/08/18 00:21:25;;;;;;;1999.90;999.90;;;15.10;99.90;;;;;;5034338;28;20178;-66
2021/08/18 00:23:51;;;;;;;1999.90;999.90;;;15.10;99.90;;;;;;5033841;28;20211;-67
2021/08/18 00:26:17;;;;;;;1999.90;999.90;;;15.00;99.90;;;;;;5034128;28;20431;-66
2021/08/18 00:28:43;;;;;;;1999.90;999.90;;;15.00;99.90;;;;;;5034127;28;20506;-67
2021/08/18 00:31:16;;;;;;;1999.90;999.90;;;15.00;99.90;;;;;;5034110;28;20413;-67
2021/08/18 00:33:41;;;;;;;1999.90;999.90;;;15.00;99.90;;;;;;5033868;28;20810;-67
2021/08/18 00:36:07;;;;;;;1999.90;999.90;;;15.00;99.90;;;;;;5033902;28;20418;-67
2021/08/18 00:38:33;;;;;;;1999.90;999.90;;;14.90;99.90;;;;;;5033887;28;20165;-67
2021/08/18 00:40:59;;;;;;;1999.90;999.90;;;14.90;99.90;;;;;;5033956;28;20462;-68
2021/08/18 00:43:25;;;;;;;1999.90;999.90;;;14.90;99.90;;;;;;5033723;28;20260;-67
2021/08/18 00:45:51;;;;;;;1999.90;999.90;;;14.90;99.90;;;;;;5033573;28;20415;-67
2021/08/18 00:48:17;;;;;;;1999.90;999.90;;;15.00;99.90;;;;;;5033914;28;20204;-66
2021/08/18 00:50:42;;;;;;;1999.90;999.90;;;15.00;99.90;;;;;;5033711;28;20173;-67
2021/08/18 00:53:08;;;;;;;1999.90;999.90;;;15.00;99.90;;;;;;5033500;28;20262;-67
2021/08/18 00:55:34;;;;;;;1999.90;999.90;;;15.00;99.90;;;;;;5033450;28;20550;-67
2021/08/18 00:57:59;;;;;;;1999.90;999.90;;;15.10;99.90;;;;;;5033535;28;20427;-67
2021/08/18 01:00:28;;;;;;;1999.90;999.90;;;15.10;99.90;;;;;;5033057;28;20175;-66
2021/08/18 01:02:53;;;;;;;1999.90;999.90;;;15.20;99.90;;;;;;5033353;28;20209;-67
2021/08/18 01:05:25;;;;;;;1999.90;999.90;;;15.10;99.90;;;;;;5033243;28;20409;-67
2021/08/18 01:07:51;;;;;;;1999.90;999.90;;;15.20;99.90;;;;;;5033427;28;20555;-66
2021/08/18 01:10:23;;;;;;;1999.90;999.90;;;15.10;99.90;;;;;;5033409;28;20940;-67
2021/08/18 01:12:49;;;;;;;1999.90;999.90;;;15.20;99.90;;;;;;5033244;28;20450;-67
2021/08/18 01:15:18;;;;;;;1999.90;999.90;;;15.20;99.90;;;;;;5033034;28;20407;-67
2021/08/18 01:17:49;;;;;;;1999.90;999.90;;;15.20;99.90;;;;;;5033260;28;20783;-66
2021/08/18 01:20:18;;;;;;;1999.90;999.90;;;15.20;99.90;;;;;;5033105;28;20474;-67
2021/08/18 01:22:44;;;;;;;1999.90;999.90;;;15.20;99.90;;;;;;5032965;28;20458;-67
2021/08/18 01:25:10;;;;;;;1999.90;999.90;;;15.20;99.90;;;;;;5032819;28;20416;-67
2021/08/18 01:27:37;;;;;;;1999.90;999.90;;;15.20;99.90;;;;;;5033010;28;20409;-67
2021/08/18 01:30:06;;;;;;;1999.90;999.90;;;15.20;99.90;;;;;;5033040;28;20408;-66
2021/08/18 01:32:51;;;;;;;1999.90;999.90;;;15.30;99.90;;;;;;5032848;28;20415;-66
2021/08/18 01:35:46;;;;;;;1999.90;999.90;;;15.30;99.90;;;;;;5032564;28;20406;-67
2021/08/18 01:38:14;;;;;;;1999.90;999.90;;;15.30;99.90;;;;;;5032850;28;20420;-67
2021/08/18 01:40:40;;;;;;;1999.90;999.90;;;15.30;99.90;;;;;;5032794;28;20442;-67
2021/08/18 01:43:07;;;;;;;1999.90;999.90;;;15.30;99.90;;;;;;5032566;28;20466;-67
2021/08/18 01:45:39;;;;;;;1999.90;999.90;;;15.30;99.90;;;;;;5032402;28;20416;-67
2021/08/18 01:48:07;;;;;;;1999.90;999.90;;;15.30;99.90;;;;;;5032692;28;20413;-67
2021/08/18 01:50:33;;;;;;;1999.90;999.90;;;15.30;99.90;;;;;;5032697;28;20825;-67
2021/08/18 01:52:58;;;;;;;1999.90;999.90;;;15.30;99.90;;;;;;5032419;28;20446;-68
2021/08/18 01:55:25;;;;;;;1999.90;999.90;;;15.40;99.90;;;;;;5032325;28;20180;-68
2021/08/18 01:57:51;;;;;;;1999.90;999.90;;;15.40;99.90;;;;;;5032532;28;20221;-68
2021/08/18 02:00:17;;;;;;;1999.90;999.90;;;15.40;99.90;;;;;;5032439;28;20470;-68
2021/08/18 02:02:43;;;;;;;1999.90;999.90;;;15.40;99.90;;;;;;5032164;28;20486;-68
2021/08/18 02:05:10;;;;;;;1999.90;999.90;;;15.40;99.90;;;;;;5032048;28;20168;-68
2021/08/18 02:07:37;;;;;;;1999.90;999.90;;;15.40;99.90;;;;;;5032358;28;20418;-68
2021/08/18 02:10:11;;;;;;;1999.90;999.90;;;15.40;99.90;;;;;;5032191;28;20490;-68
2021/08/18 02:12:37;;;;;;;1999.90;999.90;;;15.50;99.90;;;;;;5032338;28;20405;-68
2021/08/18 02:15:06;;;;;;;1999.90;999.90;;;15.50;99.90;;;;;;5031827;28;20422;-68
2021/08/18 02:17:31;;;;;;;1999.90;999.90;;;15.50;99.90;;;;;;5032327;28;20414;-68
2021/08/18 02:19:57;;;;;;;1999.90;999.90;;;15.50;99.90;;;;;;5014471;28;20784;-68
2021/08/18 02:22:22;;;;;;;1999.90;999.90;;;15.50;99.90;;;;;;5032036;28;20194;-68
2021/08/18 02:24:48;;;;;;;1999.90;999.90;;;15.50;99.90;;;;;;5031681;28;20745;-68
2021/08/18 02:27:13;;;;;;;1999.90;999.90;;;15.50;99.90;;;;;;5032111;28;20175;-68
2021/08/18 02:29:39;;;;;;;1999.90;999.90;;;15.60;99.90;;;;;;5032193;28;20168;-68
2021/08/18 02:32:05;;;;;;;1999.90;999.90;;;15.60;99.90;;;;;;5032024;28;20172;-68
2021/08/18 02:34:31;;;;;;;1999.90;999.90;;;15.60;99.90;;;;;;5031598;28;20196;-68
2021/08/18 02:36:56;;;;;;;1999.90;999.90;;;15.60;99.90;;;;;;5031974;28;20660;-68
2021/08/18 02:39:22;;;;;;;1999.90;999.90;;;15.60;99.90;;;;;;5031889;28;20268;-68
2021/08/18 02:41:47;;;;;;;1999.90;999.90;;;15.60;99.90;;;;;;5031819;28;20186;-68
2021/08/18 02:44:13;;;;;;;1999.90;999.90;;;15.60;99.90;;;;;;5031550;28;20567;-68
2021/08/18 02:46:38;;;;;;;1999.90;999.90;;;15.60;99.90;;;;;;5031962;28;20657;-68
2021/08/18 02:49:04;;;;;;;1999.90;999.90;;;15.60;99.90;;;;;;5031849;28;20601;-68
2021/08/18 02:51:30;;;;;;;1999.90;999.90;;;15.60;99.90;;;;;;5031864;28;20177;-68
2021/08/18 02:53:55;;;;;;;1999.90;999.90;;;15.60;99.90;;;;;;5031331;28;20603;-68
2021/08/18 02:56:21;;;;;;;1999.90;999.90;;;15.60;99.90;;;;;;5031787;28;20172;-68
2021/08/18 02:58:46;;;;;;;1999.90;999.90;;;15.60;99.90;;;;;;5031897;28;20169;-68
2021/08/18 03:01:12;;;;;;;1999.90;999.90;;;15.60;99.90;;;;;;5031723;28;20177;-68
2021/08/18 03:03:37;;;;;;;1999.90;999.90;;;15.60;99.90;;;;;;5031495;28;20703;-68
2021/08/18 03:06:03;;;;;;;1999.90;999.90;;;15.60;99.90;;;;;;5031368;28;20289;-68
2021/08/18 03:08:29;;;;;;;1999.90;999.90;;;15.50;99.90;;;;;;5031561;28;20168;-68
2021/08/18 03:10:54;;;;;;;1999.90;999.90;;;15.50;99.90;;;;;;5031560;28;20176;-68
2021/08/18 03:13:20;;;;;;;1999.90;999.90;;;15.50;99.90;;;;;;5031564;28;20271;-68
2021/08/18 03:15:45;;;;;;;1999.90;999.90;;;15.40;99.90;;;;;;5031356;28;20176;-68
2021/08/18 03:18:11;;;;;;;1999.90;999.90;;;15.50;99.90;;;;;;5031546;28;20690;-68
2021/08/18 03:20:37;;;;;;;1999.90;999.90;;;15.40;99.90;;;;;;5031584;28;20266;-68
2021/08/18 03:23:02;;;;;;;1999.90;999.90;;;15.50;99.90;;;;;;5033998;28;20212;-68
2021/08/18 03:25:28;;;;;;;1999.90;999.90;;;15.50;99.90;;;;;;5035137;28;20165;-68
2021/08/18 03:27:53;;;;;;;1999.90;999.90;;;15.50;99.90;;;;;;5035363;28;20172;-68
2021/08/18 03:30:19;;;;;;;1999.90;999.90;;;15.50;99.90;;;;;;5035363;28;20557;-68
2021/08/18 03:32:45;;;;;;;1999.90;999.90;;;15.50;99.90;;;;;;5035166;28;20559;-68
2021/08/18 03:35:10;;;;;;;1999.90;999.90;;;15.50;99.90;;;;;;5034908;28;20182;-68
2021/08/18 03:37:36;;;;;;;1999.90;999.90;;;15.50;99.90;;;;;;5035222;28;20661;-68
2021/08/18 03:40:03;;;;;;;1999.90;999.90;;;15.40;99.90;;;;;;5035148;28;20173;-68
2021/08/18 03:42:28;;;;;;;1999.90;999.90;;;15.40;99.90;;;;;;5034896;28;20681;-68
2021/08/18 03:44:54;;;;;;;1999.90;999.90;;;15.40;99.90;;;;;;5034794;28;20421;-68
2021/08/18 03:47:19;;;;;;;1999.90;999.90;;;15.40;99.90;;;;;;5034950;28;20518;-68
2021/08/18 03:49:45;;;;;;;1999.90;999.90;;;15.40;99.90;;;;;;5034950;28;20306;-68
2021/08/18 03:52:11;;;;;;;1999.90;999.90;;;15.40;99.90;;;;;;5039272;23;20233;-70
2021/08/18 03:54:36;;;;;;;1999.90;999.90;;;15.40;99.90;;;;;;5015387;28;20165;-69
2021/08/18 03:57:02;;;;;;;1999.90;999.90;;;15.40;99.90;;;;;;5015422;28;20262;-70
2021/08/18 03:59:28;;;;;;;1999.90;999.90;;;15.40;99.90;;;;;;5015672;28;20165;-70
2021/08/18 04:01:53;;;;;;;1999.90;999.90;;;15.50;99.90;;;;;;5015262;28;20197;-69
2021/08/18 04:04:19;;;;;;;1999.90;999.90;;;15.50;99.90;;;;;;5015045;28;20256;-70
2021/08/18 04:06:44;;;;;;;1999.90;999.90;;;15.40;99.90;;;;;;5015371;28;20626;-70
2021/08/18 04:09:10;;;;;;;1999.90;999.90;;;15.50;99.90;;;;;;5015085;28;20194;-69
2021/08/18 04:11:35;;;;;;;1999.90;999.90;;;15.50;99.90;;;;;;5014655;28;20665;-69
2021/08/18 04:14:01;;;;;;;1999.90;999.90;;;15.50;99.90;;;;;;5014427;28;20177;-68
2021/08/18 04:16:27;;;;;;;1999.90;999.90;;;15.50;99.90;;;;;;5014640;28;20244;-68
2021/08/18 04:18:52;;;;;;;1999.90;999.90;;;15.50;99.90;;;;;;5014559;28;20173;-69
2021/08/18 04:21:18;;;;;;;1999.90;999.90;;;15.50;99.90;;;;;;5014464;28;20196;-69
2021/08/18 04:23:43;;;;;;;1999.90;999.90;;;15.60;99.90;;;;;;5014347;28;20541;-69
2021/08/18 04:26:09;;;;;;;1999.90;999.90;;;15.60;99.90;;;;;;5014421;28;20170;-69
2021/08/18 04:28:35;;;;;;;1999.90;999.90;;;15.60;99.90;;;;;;5014423;28;20163;-69
2021/08/18 04:31:00;;;;;;;1999.90;999.90;;;15.60;99.90;;;;;;5014385;28;20173;-69
2021/08/18 04:33:26;;;;;;;1999.90;999.90;;;15.60;99.90;;;;;;5013191;28;20165;-69
2021/08/18 04:35:52;;;;;;;1999.90;999.90;;;15.60;99.90;;;;;;5014042;28;20337;-69
2021/08/18 04:38:17;;;;;;;1999.90;999.90;;;15.60;99.90;;;;;;5014217;28;20554;-69
2021/08/18 04:40:43;;;;;;;1999.90;999.90;;;15.60;99.90;;;;;;5014262;28;20233;-69
2021/08/18 04:43:14;;;;;;;1999.90;999.90;;;15.60;99.90;;;;;;5013975;28;20703;-69
2021/08/18 04:45:40;;;;;;;1999.90;999.90;;;15.70;99.90;;;;;;5013920;28;20175;-69
2021/08/18 04:48:06;;;;;;;1999.90;999.90;;;15.70;99.90;;;;;;5014155;28;20946;-69
2021/08/18 04:50:33;;;;;;;1999.90;999.90;;;15.70;99.90;;;;;;5013948;28;20408;-70
2021/08/18 04:52:58;;;;;;;1999.90;999.90;;;15.70;99.90;;;;;;5013858;28;20786;-69
2021/08/18 04:55:24;;;;;;;1999.90;999.90;;;15.80;99.90;;;;;;5013613;28;20409;-69
2021/08/18 04:57:49;;;;;;;1999.90;999.90;;;15.80;99.90;;;;;;5013887;28;20165;-69
2021/08/18 05:00:18;;;;;;;1999.90;999.90;;;15.80;99.90;;;;;;5013790;28;20273;-69
2021/08/18 05:02:45;;;;;;;1999.90;999.90;;;15.70;99.90;;;;;;5013703;28;20208;-69
2021/08/18 05:05:11;;;;;;;1999.90;999.90;;;15.70;99.90;;;;;;5013370;28;20419;-68
2021/08/18 05:07:37;;;;;;;1999.90;999.90;;;15.80;99.90;;;;;;5013785;28;20407;-68
2021/08/18 05:10:03;;;;;;;1999.90;999.90;;;15.80;99.90;;;;;;5013685;28;20462;-68
2021/08/18 05:12:29;;;;;;;1999.90;999.90;;;15.80;99.90;;;;;;5013702;28;20283;-68
2021/08/18 05:14:55;;;;;;;1999.90;999.90;;;15.80;99.90;;;;;;5013287;28;20871;-69
2021/08/18 05:17:20;;;;;;;1999.90;999.90;;;15.80;99.90;;;;;;5013540;28;20173;-69
2021/08/18 05:19:46;;;;;;;1999.90;999.90;;;15.90;99.90;;;;;;5013427;28;20640;-69
2021/08/18 05:22:11;;;;;;;1999.90;999.90;;;15.80;99.90;;;;;;5013273;28;20200;-69
2021/08/18 05:24:37;;;;;;;1999.90;999.90;;;15.90;99.90;;;;;;5013168;28;20686;-69
2021/08/18 05:27:03;;;;;;;1999.90;999.90;;;15.90;99.90;;;;;;5013420;28;20166;-69
2021/08/18 05:29:28;;;;;;;1999.90;999.90;;;16.00;99.90;;;;;;5013253;28;20169;-69
2021/08/18 05:31:54;;;;;;;1999.90;999.90;;;16.00;99.90;;;;;;5013361;28;20433;-69
2021/08/18 05:34:20;;;;;;;1999.90;999.90;;;16.00;99.90;;;;;;5013028;28;20173;-69
2021/08/18 05:36:45;;;;;;;1999.90;999.90;;;16.00;99.90;;;;;;5013372;28;20636;-69
2021/08/18 05:39:11;;;;;;;1999.90;999.90;;;16.00;99.90;;;;;;5013392;28;20199;-68
2021/08/18 05:41:36;;;;;;;1999.90;999.90;;;16.00;99.90;;;;;;5013668;28;20200;-68
2021/08/18 05:44:02;;;;;;;1999.90;999.90;;;16.10;99.90;;;;;;5012947;28;20196;-69
2021/08/18 05:46:28;;;;;;;1999.90;999.90;;;16.10;99.90;;;;;;5013670;28;20267;-68
2021/08/18 05:48:53;;;;;;;1999.90;999.90;;;16.10;99.90;;;;;;5013936;28;20218;-69
2021/08/18 05:51:19;;;;;;;1999.90;999.90;;;16.10;99.90;;;;;;5013531;28;20205;-69
2021/08/18 05:53:49;;;;;;;1999.90;999.90;;;16.10;99.90;;;;;;5013151;28;20242;-68
2021/08/18 05:56:15;;;;;;;1999.90;999.90;;;16.10;99.90;;;;;;5013312;28;20236;-68
2021/08/18 05:58:41;;;;;;;1999.90;999.90;;;16.00;99.90;;;;;;5013731;28;20489;-69
2021/08/18 06:01:07;;;;;;;1999.90;999.90;;;16.00;99.90;;;;;;5012749;28;20461;-69
2021/08/18 06:03:32;;;;;;;1999.90;999.90;;;16.00;99.90;;;;;;5013827;28;20520;-69
2021/08/18 06:05:58;;;;;;;1999.90;999.90;;;15.90;99.90;;;;;;5014430;28;20168;-69
2021/08/18 06:08:24;;;;;;;1999.90;999.90;;;15.90;99.90;;;;;;5014021;28;20202;-70
2021/08/18 06:10:50;;;;;;;1999.90;999.90;;;15.90;99.90;;;;;;5013601;28;20181;-69
2021/08/18 06:13:15;;;;;;;1999.90;999.90;;;15.80;99.90;;;;;;5013545;28;20409;-69
2021/08/18 06:15:41;;;;;;;1999.90;999.90;;;15.80;99.90;;;;;;5013073;28;20679;-69
2021/08/18 06:18:07;;;;;;;1999.90;999.90;;;15.80;99.90;;;;;;5013813;28;20417;-69
2021/08/18 06:20:32;;;;;;;1999.90;999.90;;;15.80;99.90;;;;;;5014315;28;20667;-69
2021/08/18 06:22:58;;;;;;;1999.90;999.90;;;15.90;99.90;;;;;;5013542;28;20205;-69
2021/08/18 06:25:24;;;;;;;1999.90;999.90;;;16.00;99.90;;;;;;5013468;28;20172;-69
2021/08/18 06:27:50;;;;;;;1999.90;999.90;;;16.00;99.90;;;;;;5013997;28;20400;-69
2021/08/18 06:30:16;;;;;;;1999.90;999.90;;;16.10;99.90;;;;;;5014553;28;20253;-69
2021/08/18 06:32:42;;;;;;;1999.90;999.90;;;16.10;99.90;;;;;;5013448;28;20423;-69
2021/08/18 06:35:08;;;;;;;1999.90;999.90;;;16.20;99.90;;;;;;5013547;28;20983;-69
2021/08/18 06:37:34;;;;;;;1999.90;999.90;;;16.20;99.90;;;;;;5013962;28;20179;-69
2021/08/18 06:39:59;;;;;;;1999.90;999.90;;;16.30;99.90;;;;;;5012894;28;20502;-69
2021/08/18 06:42:25;;;;;;;1999.90;999.90;;;16.30;99.90;;;;;;5012898;28;20580;-68
2021/08/18 06:44:51;;;;;;;1999.90;999.90;;;16.40;99.90;;;;;;5012275;28;20165;-69
2021/08/18 06:47:17;;;;;;;1999.90;999.90;;;16.40;99.90;;;;;;5012338;28;20410;-69
2021/08/18 06:49:44;;;;;;;1999.90;999.90;;;16.50;99.90;;;;;;5012520;28;20635;-69
2021/08/18 06:52:10;;;;;;;1999.90;999.90;;;16.60;99.90;;;;;;5012383;28;20683;-69
2021/08/18 06:54:36;;;;;;;1999.90;999.90;;;16.60;99.90;;;;;;5011975;28;20410;-68
2021/08/18 06:57:02;;;;;;;1999.90;999.90;;;16.70;99.90;;;;;;5013566;28;20779;-68
2021/08/18 06:59:28;;;;;;;1999.90;999.90;;;16.80;99.90;;;;;;5016117;28;20178;-70
2021/08/18 07:01:54;;;;;;;1999.90;999.90;;;16.80;99.90;;;;;;5015895;28;20538;-70
2021/08/18 07:04:20;;;;;;;1999.90;999.90;;;16.90;99.90;;;;;;5015885;28;20413;-70
2021/08/18 07:06:46;;;;;;;1999.90;999.90;;;16.90;99.90;;;;;;5015894;28;20425;-70
2021/08/18 07:09:11;;;;;;;1999.90;999.90;;;17.00;99.90;;;;;;5015947;28;20176;-69
2021/08/18 07:11:37;;;;;;;1999.90;999.90;;;17.00;99.90;;;;;;5016175;28;20216;-69
2021/08/18 07:14:04;;;;;;;1999.90;999.90;;;17.10;99.90;;;;;;5015964;28;20714;-69
2021/08/18 07:16:35;;;;;;;1999.90;999.90;;;17.10;99.90;;;;;;5016395;28;20208;-67
2021/08/18 07:19:01;;;;;;;1999.90;999.90;;;17.20;99.90;;;;;;5016165;28;20850;-69
2021/08/18 07:21:27;;;;;;;1999.90;999.90;;;17.20;99.90;;;;;;5015709;28;20427;-68
2021/08/18 07:23:54;;;;;;;1999.90;999.90;;;17.30;99.90;;;;;;5015362;28;20979;-69
2021/08/18 07:26:27;;;;;;;1999.90;999.90;;;17.30;99.90;;;;;;5015877;28;20491;-68
2021/08/18 07:28:58;;;;;;;1999.90;999.90;;;17.20;99.90;;;;;;5015817;28;20935;-68
2021/08/18 07:31:25;;;;;;;1999.90;999.90;;;17.10;99.90;;;;;;5015834;28;20838;-69
2021/08/18 07:33:51;;;;;;;1999.90;999.90;;;17.10;99.90;;;;;;5015657;28;20780;-68
2021/08/18 07:36:17;;;;;;;1999.90;999.90;;;17.10;99.90;;;;;;5015648;28;20430;-69
2021/08/18 07:38:42;;;;;;;1999.90;999.90;;;17.10;99.90;;;;;;5015611;28;20412;-68
2021/08/18 07:41:08;;;;;;;1999.90;999.90;;;17.10;99.90;;;;;;5015517;28;20520;-69
2021/08/18 07:43:34;;;;;;;1999.90;999.90;;;17.10;99.90;;;;;;5015288;28;20607;-69
2021/08/18 07:46:00;;;;;;;1999.90;999.90;;;17.10;99.90;;;;;;5015396;28;20194;-69
2021/08/18 07:48:25;;;;;;;1999.90;999.90;;;17.10;99.90;;;;;;5015354;28;20222;-69
2021/08/18 07:50:51;;;;;;;1999.90;999.90;;;17.10;99.90;;;;;;5015566;28;20176;-70
2021/08/18 07:53:17;;;;;;;1999.90;999.90;;;17.10;99.90;;;;;;5015014;28;20186;-68
2021/08/18 07:55:44;;;;;;;1999.90;999.90;;;17.00;99.90;;;;;;5014958;28;20272;-69
2021/08/18 07:58:09;;;;;;;1999.90;999.90;;;17.00;99.90;;;;;;5015044;28;20921;-69
2021/08/18 08:00:38;;;;;;;1999.90;999.90;;;16.90;99.90;;;;;;5014862;28;20188;-69
2021/08/18 08:03:03;;;;;;;1999.90;999.90;;;16.90;99.90;;;;;;5014265;28;20238;-71
2021/08/18 08:05:29;;;;;;;1999.90;999.90;;;16.90;99.90;;;;;;5014733;28;20400;-70
2021/08/18 08:07:55;;;;;;;1999.90;999.90;;;16.90;99.90;;;;;;5015336;28;20225;-71
2021/08/18 08:10:21;;;;;;;1999.90;999.90;;;16.70;99.90;;;;;;5015293;28;20171;-70
2021/08/18 08:12:46;;;;;;;1999.90;999.90;;;16.50;99.90;;;;;;5010973;28;20731;-70
2021/08/18 08:15:13;;;;;;;1999.90;999.90;;;16.50;99.90;;;;;;4995201;28;20431;-70
2021/08/18 08:17:39;;;;;;;1999.90;999.90;;;16.40;99.90;;;;;;4995149;28;20181;-70
2021/08/18 08:20:05;;;;;;;1999.90;999.90;;;16.30;99.90;;;;;;4995215;28;20403;-70
2021/08/18 08:22:30;;;;;;;1999.90;999.90;;;16.20;99.90;;;;;;4996870;28;20206;-70
2021/08/18 08:24:56;;;;;;;1999.90;999.90;;;16.20;99.90;;;;;;5014945;28;20427;-70
2021/08/18 08:27:21;;;;;;;1999.90;999.90;;;16.40;99.90;;;;;;5015264;28;20191;-70
2021/08/18 08:29:47;;;;;;;1999.90;999.90;;;16.50;99.90;;;;;;5015032;28;20174;-70
2021/08/18 08:32:13;;;;;;;1999.90;999.90;;;16.50;99.90;;;;;;5011975;28;20676;-71
2021/08/18 08:34:39;;;;;;;1999.90;999.90;;;16.60;99.90;;;;;;5013167;28;20171;-70
2021/08/18 08:37:05;;;;;;;1999.90;999.90;;;16.70;99.90;;;;;;5012958;28;20544;-71
2021/08/18 08:39:30;;;;;;;1999.90;999.90;;;16.60;99.90;;;;;;5012720;28;20490;-70
2021/08/18 08:41:56;;;;;;;1999.90;999.90;;;16.70;99.90;;;;;;5012859;28;20716;-70
2021/08/18 08:44:23;;;;;;;1999.90;999.90;;;16.70;99.90;;;;;;5013057;28;20177;-68
2021/08/18 08:46:52;;;;;;;1999.90;999.90;;;16.70;99.90;;;;;;5013583;28;20275;-69
2021/08/18 08:49:19;;;;;;;1999.90;999.90;;;16.80;99.90;;;;;;5013880;28;20897;-69
2021/08/18 08:51:47;;;;;;;1999.90;999.90;;;16.80;99.90;;;;;;5013568;28;20449;-71
2021/08/18 08:54:13;;;;;;;1999.90;999.90;;;16.90;99.90;;;;;;5013339;28;20417;-70
2021/08/18 08:56:39;;;;;;;1999.90;999.90;;;16.80;99.90;;;;;;5013814;28;20494;-69
2021/08/18 08:59:06;;;;;;;1999.90;999.90;;;16.90;99.90;;;;;;5013698;28;20418;-70
2021/08/18 09:02:10;;;;;;;1999.90;999.90;;;16.90;99.90;;;;;;5013678;28;20431;-70
2021/08/18 09:04:41;;;;;;;1999.90;999.90;;;17.00;99.90;;;;;;5013302;28;20452;-69
2021/08/18 09:07:09;;;;;;;1999.90;999.90;;;17.10;99.90;;;;;;5013394;28;20411;-71
2021/08/18 09:09:37;;;;;;;1999.90;999.90;;;17.10;99.90;;;;;;5013229;28;20404;-71
2021/08/18 09:12:14;;;;;;;1999.90;999.90;;;17.10;99.90;;;;;;5013400;28;20424;-70
2021/08/18 09:14:41;;;;;;;1999.90;999.90;;;17.10;99.90;;;;;;5013089;28;20398;-70
2021/08/18 09:17:26;;;;;;;1999.90;999.90;;;17.30;99.90;;;;;;5013380;28;20389;-69
2021/08/18 09:20:01;;;;;;;1999.90;999.90;;;17.40;99.90;;;;;;5012584;28;20414;-69
2021/08/18 09:22:27;;;;;;;1999.90;999.90;;;17.50;99.90;;;;;;5013007;28;20544;-69
2021/08/18 09:25:08;;;;;;;1999.90;999.90;;;17.60;99.90;;;;;;5012872;28;20491;-69
2021/08/18 09:27:33;;;;;;;1999.90;999.90;;;17.80;99.90;;;;;;5012307;28;20502;-69
2021/08/18 09:29:59;;;;;;;1999.90;999.90;;;17.90;99.90;;;;;;5013042;28;20507;-69
2021/08/18 09:32:26;;;;;;;1999.90;999.90;;;18.00;99.90;;;;;;5013109;28;20196;-69
2021/08/18 09:34:55;;;;;;;1999.90;999.90;;;18.10;99.90;;;;;;5012786;28;20262;-69
2021/08/18 09:37:20;;;;;;;1999.90;999.90;;;18.20;99.90;;;;;;5012966;28;20442;-69
2021/08/18 09:39:46;;;;;;;1999.90;999.90;;;18.30;99.90;;;;;;5012992;28;20443;-69
2021/08/18 09:42:32;;;;;;;1999.90;999.90;;;18.30;99.90;;;;;;5012616;28;20192;-69
2021/08/18 09:45:19;;;;;;;1999.90;999.90;;;18.40;99.90;;;;;;5012564;28;20174;-69
2021/08/18 09:48:01;;;;;;;1999.90;999.90;;;18.50;99.90;;;;;;5012146;28;20419;-69
2021/08/18 09:50:39;;;;;;;1999.90;999.90;;;18.50;99.90;;;;;;5012258;28;20408;-68
2021/08/18 09:53:20;;;;;;;1999.90;999.90;;;18.50;99.90;;;;;;5012964;28;20441;-68
2021/08/18 09:56:19;;;;;;;1999.90;999.90;;;18.50;99.90;;;;;;5012682;28;20475;-68
2021/08/18 09:58:57;;;;;;;1999.90;999.90;;;18.60;99.90;;;;;;4999627;28;20926;-68
2021/08/18 10:01:22;;;;;;;1999.90;999.90;;;18.60;99.90;;;;;;5012643;28;20471;-68
2021/08/18 10:03:50;;;;;;;1999.90;999.90;;;18.70;99.90;;;;;;5012083;28;21001;-68
2021/08/18 10:06:16;;;;;;;1999.90;999.90;;;18.80;99.90;;;;;;5012311;28;20184;-68
2021/08/18 10:08:44;;;;;;;1999.90;999.90;;;18.90;99.90;;;;;;5012199;28;20401;-68
2021/08/18 10:11:11;;;;;;;1999.90;999.90;;;18.90;99.90;;;;;;5012160;28;20429;-68
2021/08/18 10:13:37;;;;;;;1999.90;999.90;;;18.70;99.90;;;;;;5012177;28;20411;-68
2021/08/18 10:16:03;;;;;;;1999.90;999.90;;;18.70;99.90;;;;;;5001268;28;20448;-70
2021/08/18 10:18:34;;;;;;;1999.90;999.90;;;18.80;99.90;;;;;;5001860;28;20266;-70
2021/08/18 10:21:04;;;;;;;1999.90;999.90;;;18.80;99.90;;;;;;4996372;28;20412;-70
2021/08/18 10:23:47;;;;;;;1999.90;999.90;;;18.90;99.90;;;;;;5007836;28;20463;-69
2021/08/18 10:26:39;;;;;;;1999.90;999.90;;;18.90;99.90;;;;;;5010255;28;20413;-69
2021/08/18 10:29:12;;;;;;;1999.90;999.90;;;19.00;99.90;;;;;;4973421;28;20440;-69
2021/08/18 10:31:47;;;;;;;1999.90;999.90;;;19.00;99.90;;;;;;5009704;28;20424;-68
2021/08/18 10:34:21;;;;;;;1999.90;999.90;;;18.90;99.90;;;;;;5010674;28;20413;-71
2021/08/18 10:36:54;;;;;;;1999.90;999.90;;;18.80;99.90;;;;;;5010741;28;20414;-71
2021/08/18 10:39:22;;;;;;;1999.90;999.90;;;18.70;99.90;;;;;;5010289;28;21168;-70
2021/08/18 10:42:04;;;;;;;1999.90;999.90;;;18.70;99.90;;;;;;5010620;28;20439;-69
2021/08/18 10:44:47;;;;;;;1999.90;999.90;;;18.70;99.90;;;;;;5010723;28;20914;-69
2021/08/18 10:47:16;;;;;;;1999.90;999.90;;;18.70;99.90;;;;;;5010214;28;20399;-69
2021/08/18 10:49:47;;;;;;;1999.90;999.90;;;18.80;99.90;;;;;;5010492;28;20411;-70
2021/08/18 10:52:32;;;;;;;1999.90;999.90;;;18.90;99.90;;;;;;5010797;28;20453;-70
2021/08/18 10:55:03;;;;;;;1999.90;999.90;;;19.00;99.90;;;;;;5010982;28;20926;-70
2021/08/18 10:57:50;;;;;;;1999.90;999.90;;;19.00;99.90;;;;;;5011178;28;20407;-70
2021/08/18 11:00:41;;;;;;;1999.90;999.90;;;19.10;99.90;;;;;;5010269;28;20412;-71
2021/08/18 11:03:13;;;;;;;1999.90;999.90;;;19.10;99.90;;;;;;5010325;28;20491;-70
2021/08/18 11:05:39;;;;;;;1999.90;999.90;;;19.30;99.90;;;;;;5010472;28;20403;-69
2021/08/18 11:08:24;;;;;;;1999.90;999.90;;;19.30;99.90;;;;;;5010739;28;20500;-69
2021/08/18 11:10:55;;;;;;;1999.90;999.90;;;19.40;99.90;;;;;;5011754;28;20169;-69
2021/08/18 11:13:38;;;;;;;1999.90;999.90;;;19.40;99.90;;;;;;5012738;28;20401;-69
2021/08/18 11:16:12;;;;;;;1999.90;999.90;;;19.30;99.90;;;;;;5011935;28;20407;-69
2021/08/18 11:18:45;;;;;;;1999.90;999.90;;;19.20;99.90;;;;;;5012406;28;20398;-70
2021/08/18 11:21:25;;;;;;;1999.90;999.90;;;19.30;99.90;;;;;;5011719;28;20429;-70
2021/08/18 11:23:56;;;;;;;1999.90;999.90;;;19.30;99.90;;;;;;5010738;28;20459;-70
2021/08/18 11:26:24;;;;;;;1999.90;999.90;;;19.30;99.90;;;;;;5012198;28;20443;-70
2021/08/18 11:28:55;;;;;;;1999.90;999.90;;;19.40;99.90;;;;;;5004355;28;20417;-70
2021/08/18 11:31:33;;;;;;;1999.90;999.90;;;19.50;99.90;;;;;;5012044;28;21123;-70
2021/08/18 11:33:59;;;;;;;1999.90;999.90;;;19.70;99.90;;;;;;5012385;28;20439;-70
2021/08/18 11:36:25;;;;;;;1999.90;999.90;;;19.90;99.90;;;;;;5011638;28;20471;-70
2021/08/18 11:38:59;;;;;;;1999.90;999.90;;;20.10;99.90;;;;;;5011312;28;20400;-71
2021/08/18 11:41:51;;;;;;;1999.90;999.90;;;20.20;99.90;;;;;;5011126;28;20187;-71
2021/08/18 11:44:38;;;;;;;1999.90;999.90;;;20.40;99.90;;;;;;5010949;28;20465;-71
2021/08/18 11:47:13;;;;;;;1999.90;999.90;;;20.30;99.90;;;;;;5013847;28;20445;-71
2021/08/18 11:49:40;;;;;;;1999.90;999.90;;;20.30;99.90;;;;;;5013629;28;20406;-70
2021/08/18 11:52:07;;;;;;;1999.90;999.90;;;20.20;99.90;;;;;;5013349;28;20454;-70
2021/08/18 11:54:33;;;;;;;1999.90;999.90;;;20.20;99.90;;;;;;5013465;28;21007;-70
2021/08/18 11:57:02;;;;;;;1999.90;999.90;;;20.10;99.90;;;;;;5014192;28;20411;-70
2021/08/18 11:59:28;;;;;;;1999.90;999.90;;;20.10;99.90;;;;;;5013795;28;20404;-70
2021/08/18 12:01:55;;;;;;;1999.90;999.90;;;19.80;99.90;;;;;;5013278;28;20421;-70
2021/08/18 12:04:21;;;;;;;1999.90;999.90;;;19.60;99.90;;;;;;5013127;28;20448;-70